sensor_id;sensor_type;location;lat;lon;timestamp;temperature;humidity
25949;DHT22;13961;51.178;4.448;2023-01-16T00:01:12;5.50;99.90
25949;DHT22;13961;51.178;4.448;2023-01-16T00:03:38;5.50;99.90
25949;DHT22;13961;51.178;4.448;2023-01-16T00:06:04;5.50;99.90
25949;DHT22;13961;51.178;4.448;2023-01-16T00:08:30;5.30;99.90
25949;DHT22;13961;51.178;4.448;2023-01-16T00:10:56;5.20;99.90
25949;DHT22;13961;51.178;4.448;2023-01-16T00:13:22;5.40;99.90
25949;DHT22;13961;51.178;4.448;2023-01-16T00:15:49;5.30;99.90
25949;DHT22;13961;51.178;4.448;2023-01-16T00:18:16;5.50;99.90
25949;DHT22;13961;51.178;4.448;2023-01-16T00:20:41;5.70;99.90
25949;DHT22;13961;51.178;4.448;2023-01-16T00:23:09;5.40;99.90
25949;DHT22;13961;51.178;4.448;2023-01-16T00:25:38;5.30;99.90
25949;DHT22;13961;51.178;4.448;2023-01-16T00:28:06;5.40;99.90
25949;DHT22;13961;51.178;4.448;2023-01-16T00:30:31;5.40;99.90
25949;DHT22;13961;51.178;4.448;2023-01-16T00:32:57;5.30;99.90
25949;DHT22;13961;51.178;4.448;2023-01-16T00:35:22;5.50;99.90
25949;DHT22;13961;51.178;4.448;2023-01-16T00:37:48;5.20;99.90
25949;DHT22;13961;51.178;4.448;2023-01-16T00:40:14;5.30;99.90
25949;DHT22;13961;51.178;4.448;2023-01-16T00:42:39;5.20;99.90
25949;DHT22;13961;51.178;4.448;2023-01-16T00:45:06;5.20;99.90
25949;DHT22;13961;51.178;4.448;2023-01-16T00:47:31;5.10;99.90
25949;DHT22;13961;51.178;4.448;2023-01-16T00:49:57;5.30;99.90
25949;DHT22;13961;51.178;4.448;2023-01-16T00:52:23;5.30;99.90
25949;DHT22;13961;51.178;4.448;2023-01-16T00:54:48;5.50;99.90
25949;DHT22;13961;51.178;4.448;2023-01-16T00:57:14;5.30;99.90
25949;DHT22;13961;51.178;4.448;2023-01-16T00:59:40;5.10;99.90
25949;DHT22;13961;51.178;4.448;2023-01-16T01:02:05;5.30;99.90
25949;DHT22;13961;51.178;4.448;2023-01-16T01:04:31;5.20;99.90
25949;DHT22;13961;51.178;4.448;2023-01-16T01:06:57;5.30;99.90
25949;DHT22;13961;51.178;4.448;2023-01-16T01:09:22;5.30;99.90
25949;DHT22;13961;51.178;4.448;2023-01-16T01:11:48;5.50;99.90
25949;DHT22;13961;51.178;4.448;2023-01-16T01:14:13;5.20;99.90
25949;DHT22;13961;51.178;4.448;2023-01-16T01:16:39;5.30;99.90
25949;DHT22;13961;51.178;4.448;2023-01-16T01:19:05;5.30;99.90
25949;DHT22;13961;51.178;4.448;2023-01-16T01:21:31;5.10;99.90
25949;DHT22;13961;51.178;4.448;2023-01-16T01:23:57;5.00;99.90
25949;DHT22;13961;51.178;4.448;2023-01-16T01:26:23;5.20;99.90
25949;DHT22;13961;51.178;4.448;2023-01-16T01:28:49;5.40;99.90
25949;DHT22;13961;51.178;4.448;2023-01-16T01:31:15;5.40;99.90
25949;DHT22;13961;51.178;4.448;2023-01-16T01:33:41;5.00;99.90
25949;DHT22;13961;51.178;4.448;2023-01-16T01:36:08;5.10;99.90
25949;DHT22;13961;51.178;4.448;2023-01-16T01:38:34;5.20;99.90
25949;DHT22;13961;51.178;4.448;2023-01-16T01:41:00;5.10;99.90
25949;DHT22;13961;51.178;4.448;2023-01-16T01:43:47;5.20;99.90
25949;DHT22;13961;51.178;4.448;2023-01-16T01:46:30;5.40;99.90
25949;DHT22;13961;51.178;4.448;2023-01-16T01:49:22;5.30;99.90
25949;DHT22;13961;51.178;4.448;2023-01-16T01:51:52;5.40;99.90
25949;DHT22;13961;51.178;4.448;2023-01-16T01:54:23;5.50;99.90
25949;DHT22;13961;51.178;4.448;2023-01-16T01:56:59;5.30;99.90
25949;DHT22;13961;51.178;4.448;2023-01-16T01:59:31;5.20;99.90
25949;DHT22;13961;51.178;4.448;2023-01-16T02:02:01;5.20;99.90
25949;DHT22;13961;51.178;4.448;2023-01-16T02:04:33;5.30;99.90
25949;DHT22;13961;51.178;4.448;2023-01-16T02:07:03;5.20;99.90
25949;DHT22;13961;51.178;4.448;2023-01-16T02:09:30;5.30;99.90
25949;DHT22;13961;51.178;4.448;2023-01-16T02:12:12;5.60;99.90
25949;DHT22;13961;51.178;4.448;2023-01-16T02:14:41;5.30;99.90
25949;DHT22;13961;51.178;4.448;2023-01-16T02:17:16;5.50;99.90
25949;DHT22;13961;51.178;4.448;2023-01-16T02:20:15;5.20;99.90
25949;DHT22;13961;51.178;4.448;2023-01-16T02:39:21;5.00;99.90
25949;DHT22;13961;51.178;4.448;2023-01-16T02:50:20;4.90;99.90
25949;DHT22;13961;51.178;4.448;2023-01-16T02:52:30;4.90;99.90
25949;DHT22;13961;51.178;4.448;2023-01-16T02:57:38;5.00;99.90
25949;DHT22;13961;51.178;4.448;2023-01-16T03:00:06;4.80;99.90
25949;DHT22;13961;51.178;4.448;2023-01-16T03:02:33;5.00;99.90
25949;DHT22;13961;51.178;4.448;2023-01-16T03:04:58;4.80;99.90
25949;DHT22;13961;51.178;4.448;2023-01-16T03:16:04;5.30;99.90
25949;DHT22;13961;51.178;4.448;2023-01-16T03:18:50;5.20;99.90
25949;DHT22;13961;51.178;4.448;2023-01-16T03:21:38;5.40;99.90
25949;DHT22;13961;51.178;4.448;2023-01-16T03:27:01;5.40;99.90
25949;DHT22;13961;51.178;4.448;2023-01-16T03:35:19;5.70;99.90
25949;DHT22;13961;51.178;4.448;2023-01-16T03:37:52;5.50;99.90
25949;DHT22;13961;51.178;4.448;2023-01-16T03:40:22;5.40;99.90
25949;DHT22;13961;51.178;4.448;2023-01-16T03:43:05;5.40;99.90
25949;DHT22;13961;51.178;4.448;2023-01-16T03:45:57;5.60;99.90
25949;DHT22;13961;51.178;4.448;2023-01-16T03:51:19;6.00;99.90
25949;DHT22;13961;51.178;4.448;2023-01-16T03:59:14;5.70;99.90
25949;DHT22;13961;51.178;4.448;2023-01-16T04:02:00;5.80;99.90
25949;DHT22;13961;51.178;4.448;2023-01-16T04:04:29;5.70;99.90
25949;DHT22;13961;51.178;4.448;2023-01-16T04:07:17;5.90;99.90
25949;DHT22;13961;51.178;4.448;2023-01-16T04:09:47;5.80;99.90
25949;DHT22;13961;51.178;4.448;2023-01-16T04:12:15;5.90;99.90
25949;DHT22;13961;51.178;4.448;2023-01-16T04:14:47;6.20;99.90
25949;DHT22;13961;51.178;4.448;2023-01-16T04:17:15;6.20;99.90
25949;DHT22;13961;51.178;4.448;2023-01-16T04:19:40;5.80;99.90
25949;DHT22;13961;51.178;4.448;2023-01-16T04:22:07;5.70;99.90
25949;DHT22;13961;51.178;4.448;2023-01-16T04:24:34;5.80;99.90
25949;DHT22;13961;51.178;4.448;2023-01-16T04:26:59;5.90;99.90
25949;DHT22;13961;51.178;4.448;2023-01-16T04:29:25;6.10;99.90
25949;DHT22;13961;51.178;4.448;2023-01-16T04:31:51;5.90;99.90
25949;DHT22;13961;51.178;4.448;2023-01-16T04:34:17;6.00;99.90
25949;DHT22;13961;51.178;4.448;2023-01-16T04:36:42;6.20;99.90
25949;DHT22;13961;51.178;4.448;2023-01-16T04:39:09;6.30;99.90
25949;DHT22;13961;51.178;4.448;2023-01-16T04:41:35;6.30;99.90
25949;DHT22;13961;51.178;4.448;2023-01-16T04:44:06;6.10;99.90
25949;DHT22;13961;51.178;4.448;2023-01-16T04:46:32;5.90;99.90
25949;DHT22;13961;51.178;4.448;2023-01-16T04:48:58;5.90;99.90
25949;DHT22;13961;51.178;4.448;2023-01-16T04:51:24;5.70;99.90
25949;DHT22;13961;51.178;4.448;2023-01-16T04:53:50;5.70;99.90
25949;DHT22;13961;51.178;4.448;2023-01-16T04:56:17;5.80;99.90
25949;DHT22;13961;51.178;4.448;2023-01-16T04:58:43;5.70;99.90
25949;DHT22;13961;51.178;4.448;2023-01-16T05:01:08;5.60;99.90
25949;DHT22;13961;51.178;4.448;2023-01-16T05:03:34;5.80;99.90
25949;DHT22;13961;51.178;4.448;2023-01-16T05:05:59;5.80;99.90
25949;DHT22;13961;51.178;4.448;2023-01-16T05:08:25;5.80;99.90
25949;DHT22;13961;51.178;4.448;2023-01-16T05:10:53;5.80;99.90
25949;DHT22;13961;51.178;4.448;2023-01-16T05:13:20;5.70;99.90
25949;DHT22;13961;51.178;4.448;2023-01-16T05:15:46;5.70;99.90
25949;DHT22;13961;51.178;4.448;2023-01-16T05:18:12;5.90;99.90
25949;DHT22;13961;51.178;4.448;2023-01-16T05:20:39;5.90;99.90
25949;DHT22;13961;51.178;4.448;2023-01-16T05:23:05;5.90;99.90
25949;DHT22;13961;51.178;4.448;2023-01-16T05:25:31;5.90;99.90
25949;DHT22;13961;51.178;4.448;2023-01-16T05:27:57;6.00;99.90
25949;DHT22;13961;51.178;4.448;2023-01-16T05:30:22;5.70;99.90
25949;DHT22;13961;51.178;4.448;2023-01-16T05:32:48;5.80;99.90
25949;DHT22;13961;51.178;4.448;2023-01-16T05:35:15;5.60;99.90
25949;DHT22;13961;51.178;4.448;2023-01-16T05:37:42;5.60;99.90
25949;DHT22;13961;51.178;4.448;2023-01-16T05:40:09;5.60;99.90
25949;DHT22;13961;51.178;4.448;2023-01-16T05:42:35;5.50;99.90
25949;DHT22;13961;51.178;4.448;2023-01-16T05:45:01;5.70;99.90
25949;DHT22;13961;51.178;4.448;2023-01-16T05:47:27;5.50;99.90
25949;DHT22;13961;51.178;4.448;2023-01-16T05:49:53;5.70;99.90
25949;DHT22;13961;51.178;4.448;2023-01-16T05:52:18;5.60;99.90
25949;DHT22;13961;51.178;4.448;2023-01-16T05:54:44;5.80;99.90
25949;DHT22;13961;51.178;4.448;2023-01-16T05:57:10;5.50;99.90
25949;DHT22;13961;51.178;4.448;2023-01-16T05:59:36;5.70;99.90
25949;DHT22;13961;51.178;4.448;2023-01-16T06:02:04;5.50;99.90
25949;DHT22;13961;51.178;4.448;2023-01-16T06:04:30;5.70;99.90
25949;DHT22;13961;51.178;4.448;2023-01-16T06:06:58;5.60;99.90
25949;DHT22;13961;51.178;4.448;2023-01-16T06:09:23;5.90;99.90
25949;DHT22;13961;51.178;4.448;2023-01-16T06:11:50;5.90;99.90
25949;DHT22;13961;51.178;4.448;2023-01-16T06:14:16;5.70;99.90
25949;DHT22;13961;51.178;4.448;2023-01-16T06:16:42;5.60;99.90
25949;DHT22;13961;51.178;4.448;2023-01-16T06:19:08;5.80;99.90
25949;DHT22;13961;51.178;4.448;2023-01-16T06:21:35;5.90;99.90
25949;DHT22;13961;51.178;4.448;2023-01-16T06:24:00;5.70;99.90
25949;DHT22;13961;51.178;4.448;2023-01-16T06:26:26;5.60;99.90
25949;DHT22;13961;51.178;4.448;2023-01-16T06:28:52;5.80;99.90
25949;DHT22;13961;51.178;4.448;2023-01-16T06:31:17;5.80;99.90
25949;DHT22;13961;51.178;4.448;2023-01-16T06:33:45;5.80;99.90
25949;DHT22;13961;51.178;4.448;2023-01-16T06:36:11;5.50;99.90
25949;DHT22;13961;51.178;4.448;2023-01-16T06:38:37;5.60;99.90
25949;DHT22;13961;51.178;4.448;2023-01-16T06:41:03;5.90;99.90
25949;DHT22;13961;51.178;4.448;2023-01-16T06:43:30;5.60;99.90
25949;DHT22;13961;51.178;4.448;2023-01-16T06:45:56;5.60;99.90
25949;DHT22;13961;51.178;4.448;2023-01-16T06:48:22;5.70;99.90
25949;DHT22;13961;51.178;4.448;2023-01-16T06:50:48;5.90;99.90
25949;DHT22;13961;51.178;4.448;2023-01-16T06:53:15;5.80;99.90
25949;DHT22;13961;51.178;4.448;2023-01-16T06:55:42;5.70;99.90
25949;DHT22;13961;51.178;4.448;2023-01-16T06:58:08;5.70;99.90
25949;DHT22;13961;51.178;4.448;2023-01-16T07:00:35;5.70;99.90
25949;DHT22;13961;51.178;4.448;2023-01-16T07:03:02;5.80;99.90
25949;DHT22;13961;51.178;4.448;2023-01-16T07:05:29;5.90;99.90
25949;DHT22;13961;51.178;4.448;2023-01-16T07:07:57;5.80;99.90
25949;DHT22;13961;51.178;4.448;2023-01-16T07:10:23;5.90;99.90
25949;DHT22;13961;51.178;4.448;2023-01-16T07:12:50;6.00;99.90
25949;DHT22;13961;51.178;4.448;2023-01-16T07:15:16;5.70;99.90
25949;DHT22;13961;51.178;4.448;2023-01-16T07:18:01;5.70;99.90
25949;DHT22;13961;51.178;4.448;2023-01-16T07:20:57;5.70;99.90
25949;DHT22;13961;51.178;4.448;2023-01-16T07:23:49;5.60;99.90
25949;DHT22;13961;51.178;4.448;2023-01-16T07:26:16;5.70;99.90
25949;DHT22;13961;51.178;4.448;2023-01-16T07:28:45;5.80;99.90
25949;DHT22;13961;51.178;4.448;2023-01-16T07:31:11;5.70;99.90
25949;DHT22;13961;51.178;4.448;2023-01-16T07:33:37;5.70;99.90
25949;DHT22;13961;51.178;4.448;2023-01-16T07:36:03;5.80;99.90
25949;DHT22;13961;51.178;4.448;2023-01-16T07:38:29;5.60;99.90
25949;DHT22;13961;51.178;4.448;2023-01-16T07:40:54;5.60;99.90
25949;DHT22;13961;51.178;4.448;2023-01-16T07:43:20;5.80;99.90
25949;DHT22;13961;51.178;4.448;2023-01-16T07:45:46;5.70;99.90
25949;DHT22;13961;51.178;4.448;2023-01-16T07:48:18;5.60;99.90
25949;DHT22;13961;51.178;4.448;2023-01-16T07:50:52;5.80;99.90
25949;DHT22;13961;51.178;4.448;2023-01-16T07:53:19;5.50;99.90
25949;DHT22;13961;51.178;4.448;2023-01-16T07:55:51;5.40;99.90
25949;DHT22;13961;51.178;4.448;2023-01-16T07:58:17;5.70;99.90
25949;DHT22;13961;51.178;4.448;2023-01-16T08:00:43;5.50;99.90
25949;DHT22;13961;51.178;4.448;2023-01-16T08:03:10;5.60;99.90
25949;DHT22;13961;51.178;4.448;2023-01-16T08:05:36;5.70;99.90
25949;DHT22;13961;51.178;4.448;2023-01-16T08:08:02;5.60;99.90
25949;DHT22;13961;51.178;4.448;2023-01-16T08:10:28;5.40;99.90
25949;DHT22;13961;51.178;4.448;2023-01-16T08:12:53;5.70;99.90
25949;DHT22;13961;51.178;4.448;2023-01-16T08:15:19;5.40;99.90
25949;DHT22;13961;51.178;4.448;2023-01-16T08:17:45;5.50;99.90
25949;DHT22;13961;51.178;4.448;2023-01-16T08:20:11;5.60;99.90
25949;DHT22;13961;51.178;4.448;2023-01-16T08:22:47;5.50;99.90
25949;DHT22;13961;51.178;4.448;2023-01-16T08:25:14;5.60;99.90
25949;DHT22;13961;51.178;4.448;2023-01-16T08:27:40;5.50;99.90
25949;DHT22;13961;51.178;4.448;2023-01-16T08:30:07;5.60;99.90
25949;DHT22;13961;51.178;4.448;2023-01-16T08:32:33;5.50;99.90
25949;DHT22;13961;51.178;4.448;2023-01-16T08:34:58;5.50;99.90
25949;DHT22;13961;51.178;4.448;2023-01-16T08:37:24;5.90;99.90
25949;DHT22;13961;51.178;4.448;2023-01-16T08:39:51;5.80;99.90
25949;DHT22;13961;51.178;4.448;2023-01-16T08:42:16;5.80;99.90
25949;DHT22;13961;51.178;4.448;2023-01-16T08:45:01;5.60;99.90
25949;DHT22;13961;51.178;4.448;2023-01-16T08:47:45;5.60;99.90
25949;DHT22;13961;51.178;4.448;2023-01-16T08:50:30;5.80;99.90
25949;DHT22;13961;51.178;4.448;2023-01-16T08:53:13;5.80;99.90
25949;DHT22;13961;51.178;4.448;2023-01-16T08:55:39;6.00;99.90
25949;DHT22;13961;51.178;4.448;2023-01-16T08:58:05;5.90;99.90
25949;DHT22;13961;51.178;4.448;2023-01-16T09:00:31;5.90;99.90
25949;DHT22;13961;51.178;4.448;2023-01-16T09:02:57;5.90;99.90
25949;DHT22;13961;51.178;4.448;2023-01-16T09:05:25;6.10;99.90
25949;DHT22;13961;51.178;4.448;2023-01-16T09:07:51;6.00;99.90
25949;DHT22;13961;51.178;4.448;2023-01-16T09:10:17;5.80;99.90
25949;DHT22;13961;51.178;4.448;2023-01-16T09:12:43;5.80;99.90
25949;DHT22;13961;51.178;4.448;2023-01-16T09:15:27;5.90;99.90
25949;DHT22;13961;51.178;4.448;2023-01-16T09:17:53;5.70;99.90
25949;DHT22;13961;51.178;4.448;2023-01-16T09:20:18;5.70;99.90
25949;DHT22;13961;51.178;4.448;2023-01-16T09:22:46;5.70;99.90
25949;DHT22;13961;51.178;4.448;2023-01-16T09:25:12;6.10;99.90
25949;DHT22;13961;51.178;4.448;2023-01-16T09:27:38;6.00;99.90
25949;DHT22;13961;51.178;4.448;2023-01-16T09:30:04;6.20;99.90
25949;DHT22;13961;51.178;4.448;2023-01-16T09:32:30;6.10;99.90
25949;DHT22;13961;51.178;4.448;2023-01-16T09:34:57;6.10;99.90
25949;DHT22;13961;51.178;4.448;2023-01-16T09:37:23;6.30;99.90
25949;DHT22;13961;51.178;4.448;2023-01-16T09:39:48;6.20;99.90
25949;DHT22;13961;51.178;4.448;2023-01-16T09:45:17;6.00;99.90
25949;DHT22;13961;51.178;4.448;2023-01-16T09:47:47;6.00;99.90
25949;DHT22;13961;51.178;4.448;2023-01-16T09:50:37;6.10;99.90
25949;DHT22;13961;51.178;4.448;2023-01-16T09:53:09;6.20;99.90
25949;DHT22;13961;51.178;4.448;2023-01-16T09:55:55;6.20;99.90
25949;DHT22;13961;51.178;4.448;2023-01-16T09:58:46;6.10;99.90
25949;DHT22;13961;51.178;4.448;2023-01-16T10:01:36;6.00;99.90
25949;DHT22;13961;51.178;4.448;2023-01-16T10:04:20;6.00;99.90
25949;DHT22;13961;51.178;4.448;2023-01-16T10:09:44;6.10;99.90
25949;DHT22;13961;51.178;4.448;2023-01-16T10:12:14;6.00;99.90
25949;DHT22;13961;51.178;4.448;2023-01-16T10:26:24;6.30;99.90
25949;DHT22;13961;51.178;4.448;2023-01-16T10:32:18;6.10;99.90
25949;DHT22;13961;51.178;4.448;2023-01-16T10:35:09;6.00;99.90
25949;DHT22;13961;51.178;4.448;2023-01-16T10:37:37;6.20;99.90
25949;DHT22;13961;51.178;4.448;2023-01-16T10:40:16;6.40;99.90
25949;DHT22;13961;51.178;4.448;2023-01-16T10:42:47;6.50;99.90
25949;DHT22;13961;51.178;4.448;2023-01-16T10:45:35;6.90;99.90
25949;DHT22;13961;51.178;4.448;2023-01-16T10:48:20;6.80;99.90
25949;DHT22;13961;51.178;4.448;2023-01-16T10:51:06;6.80;99.90
25949;DHT22;13961;51.178;4.448;2023-01-16T10:53:33;6.90;99.90
25949;DHT22;13961;51.178;4.448;2023-01-16T10:56:00;6.90;99.90
25949;DHT22;13961;51.178;4.448;2023-01-16T10:58:31;6.90;99.90
25949;DHT22;13961;51.178;4.448;2023-01-16T11:01:21;7.20;99.90
25949;DHT22;13961;51.178;4.448;2023-01-16T11:03:50;7.30;99.90
25949;DHT22;13961;51.178;4.448;2023-01-16T11:06:28;7.70;99.90
25949;DHT22;13961;51.178;4.448;2023-01-16T11:09:05;7.70;99.90
25949;DHT22;13961;51.178;4.448;2023-01-16T11:11:34;7.80;99.90
25949;DHT22;13961;51.178;4.448;2023-01-16T11:14:32;7.60;99.90
25949;DHT22;13961;51.178;4.448;2023-01-16T11:17:34;7.80;99.90
25949;DHT22;13961;51.178;4.448;2023-01-16T11:20:24;7.90;99.90
25949;DHT22;13961;51.178;4.448;2023-01-16T11:22:59;7.90;99.90
25949;DHT22;13961;51.178;4.448;2023-01-16T11:25:29;7.60;99.90
25949;DHT22;13961;51.178;4.448;2023-01-16T11:27:58;7.60;99.90
25949;DHT22;13961;51.178;4.448;2023-01-16T11:30:38;8.00;99.90
25949;DHT22;13961;51.178;4.448;2023-01-16T11:33:15;7.80;99.90
25949;DHT22;13961;51.178;4.448;2023-01-16T11:35:54;7.80;99.90
25949;DHT22;13961;51.178;4.448;2023-01-16T11:38:21;7.50;99.90
25949;DHT22;13961;51.178;4.448;2023-01-16T11:40:48;7.40;99.90
25949;DHT22;13961;51.178;4.448;2023-01-16T11:43:23;7.30;99.90
25949;DHT22;13961;51.178;4.448;2023-01-16T11:46:38;7.20;99.90
25949;DHT22;13961;51.178;4.448;2023-01-16T11:49:24;7.60;99.90
25949;DHT22;13961;51.178;4.448;2023-01-16T11:51:54;7.50;99.90
25949;DHT22;13961;51.178;4.448;2023-01-16T11:54:28;7.60;99.90
25949;DHT22;13961;51.178;4.448;2023-01-16T12:05:06;7.70;99.90
25949;DHT22;13961;51.178;4.448;2023-01-16T12:13:09;7.90;99.90
25949;DHT22;13961;51.178;4.448;2023-01-16T12:21:35;7.70;99.90
25949;DHT22;13961;51.178;4.448;2023-01-16T12:26:43;7.50;99.90
25949;DHT22;13961;51.178;4.448;2023-01-16T12:40:28;7.90;99.90
25949;DHT22;13961;51.178;4.448;2023-01-16T12:43:19;7.70;99.90
25949;DHT22;13961;51.178;4.448;2023-01-16T12:46:31;7.70;99.90
25949;DHT22;13961;51.178;4.448;2023-01-16T12:49:22;7.90;99.90
25949;DHT22;13961;51.178;4.448;2023-01-16T12:52:12;8.10;99.90
25949;DHT22;13961;51.178;4.448;2023-01-16T12:58:02;8.00;99.90
25949;DHT22;13961;51.178;4.448;2023-01-16T13:00:42;8.10;99.90
25949;DHT22;13961;51.178;4.448;2023-01-16T13:03:44;8.10;99.90
25949;DHT22;13961;51.178;4.448;2023-01-16T13:06:20;7.90;99.90
25949;DHT22;13961;51.178;4.448;2023-01-16T13:08:52;7.90;99.90
25949;DHT22;13961;51.178;4.448;2023-01-16T13:11:35;8.00;99.90
25949;DHT22;13961;51.178;4.448;2023-01-16T13:14:22;7.90;99.90
25949;DHT22;13961;51.178;4.448;2023-01-16T13:17:02;8.00;99.90
25949;DHT22;13961;51.178;4.448;2023-01-16T13:19:34;8.00;99.90
25949;DHT22;13961;51.178;4.448;2023-01-16T13:24:33;8.00;99.90
25949;DHT22;13961;51.178;4.448;2023-01-16T13:27:03;7.90;99.90
25949;DHT22;13961;51.178;4.448;2023-01-16T13:29:38;7.90;99.90
25949;DHT22;13961;51.178;4.448;2023-01-16T13:32:42;8.00;99.90
25949;DHT22;13961;51.178;4.448;2023-01-16T13:35:06;8.20;99.90
25949;DHT22;13961;51.178;4.448;2023-01-16T13:40:17;8.00;99.90
25949;DHT22;13961;51.178;4.448;2023-01-16T13:43:15;8.00;99.90
25949;DHT22;13961;51.178;4.448;2023-01-16T13:46:00;8.10;99.90
25949;DHT22;13961;51.178;4.448;2023-01-16T13:48:34;8.20;99.90
25949;DHT22;13961;51.178;4.448;2023-01-16T13:51:06;8.20;99.90
25949;DHT22;13961;51.178;4.448;2023-01-16T13:53:36;8.30;99.90
25949;DHT22;13961;51.178;4.448;2023-01-16T13:56:06;8.50;99.90
25949;DHT22;13961;51.178;4.448;2023-01-16T13:58:37;8.50;99.90
25949;DHT22;13961;51.178;4.448;2023-01-16T14:01:05;8.10;99.90
25949;DHT22;13961;51.178;4.448;2023-01-16T14:03:34;8.10;99.90
25949;DHT22;13961;51.178;4.448;2023-01-16T14:08:50;8.10;99.90
25949;DHT22;13961;51.178;4.448;2023-01-16T14:14:33;8.20;99.90
25949;DHT22;13961;51.178;4.448;2023-01-16T14:17:20;8.30;99.90
25949;DHT22;13961;51.178;4.448;2023-01-16T14:19:58;8.50;99.90
25949;DHT22;13961;51.178;4.448;2023-01-16T14:22:41;8.20;99.90
25949;DHT22;13961;51.178;4.448;2023-01-16T14:25:27;8.20;99.90
25949;DHT22;13961;51.178;4.448;2023-01-16T14:27:54;8.10;99.90
25949;DHT22;13961;51.178;4.448;2023-01-16T14:30:24;8.20;99.90
25949;DHT22;13961;51.178;4.448;2023-01-16T14:32:55;8.10;99.90
25949;DHT22;13961;51.178;4.448;2023-01-16T14:35:51;8.20;99.90
25949;DHT22;13961;51.178;4.448;2023-01-16T14:38:23;8.30;99.90
25949;DHT22;13961;51.178;4.448;2023-01-16T14:40:56;8.40;99.90
25949;DHT22;13961;51.178;4.448;2023-01-16T14:44:12;8.30;99.90
25949;DHT22;13961;51.178;4.448;2023-01-16T14:47:29;8.40;99.90
25949;DHT22;13961;51.178;4.448;2023-01-16T14:50:15;8.40;99.90
25949;DHT22;13961;51.178;4.448;2023-01-16T14:55:59;8.50;99.90
25949;DHT22;13961;51.178;4.448;2023-01-16T14:58:59;8.50;99.90
25949;DHT22;13961;51.178;4.448;2023-01-16T15:01:45;8.50;99.90
25949;DHT22;13961;51.178;4.448;2023-01-16T15:04:47;8.40;99.90
25949;DHT22;13961;51.178;4.448;2023-01-16T15:07:16;8.60;99.90
25949;DHT22;13961;51.178;4.448;2023-01-16T15:09:43;8.50;99.90
25949;DHT22;13961;51.178;4.448;2023-01-16T15:12:12;8.50;99.90
25949;DHT22;13961;51.178;4.448;2023-01-16T15:14:38;8.40;99.90
25949;DHT22;13961;51.178;4.448;2023-01-16T15:22:51;8.10;99.90
25949;DHT22;13961;51.178;4.448;2023-01-16T15:28:31;7.40;99.90
25949;DHT22;13961;51.178;4.448;2023-01-16T15:31:03;7.10;99.90
25949;DHT22;13961;51.178;4.448;2023-01-16T15:33:32;7.20;99.90
25949;DHT22;13961;51.178;4.448;2023-01-16T15:36:22;7.30;99.90
25949;DHT22;13961;51.178;4.448;2023-01-16T15:38:51;7.50;99.90
25949;DHT22;13961;51.178;4.448;2023-01-16T15:44:10;7.10;99.90
25949;DHT22;13961;51.178;4.448;2023-01-16T15:52:31;6.70;99.90
25949;DHT22;13961;51.178;4.448;2023-01-16T15:54:58;6.60;99.90
25949;DHT22;13961;51.178;4.448;2023-01-16T15:57:24;6.30;99.90
25949;DHT22;13961;51.178;4.448;2023-01-16T15:59:53;6.20;99.90
25949;DHT22;13961;51.178;4.448;2023-01-16T16:02:26;6.20;99.90
25949;DHT22;13961;51.178;4.448;2023-01-16T16:04:55;6.20;99.90
25949;DHT22;13961;51.178;4.448;2023-01-16T16:07:23;6.30;99.90
25949;DHT22;13961;51.178;4.448;2023-01-16T16:09:52;5.90;99.90
25949;DHT22;13961;51.178;4.448;2023-01-16T16:12:19;5.70;99.90
25949;DHT22;13961;51.178;4.448;2023-01-16T16:14:45;5.20;99.90
25949;DHT22;13961;51.178;4.448;2023-01-16T16:17:32;5.30;99.90
25949;DHT22;13961;51.178;4.448;2023-01-16T16:20:37;5.00;99.90
25949;DHT22;13961;51.178;4.448;2023-01-16T16:23:23;5.10;99.90
25949;DHT22;13961;51.178;4.448;2023-01-16T16:25:58;5.20;99.90
25949;DHT22;13961;51.178;4.448;2023-01-16T16:28:27;5.30;99.90
25949;DHT22;13961;51.178;4.448;2023-01-16T16:31:05;5.40;99.90
25949;DHT22;13961;51.178;4.448;2023-01-16T16:33:31;5.40;99.90
25949;DHT22;13961;51.178;4.448;2023-01-16T16:36:01;5.30;99.90
25949;DHT22;13961;51.178;4.448;2023-01-16T16:38:31;4.90;99.90
25949;DHT22;13961;51.178;4.448;2023-01-16T16:43:55;5.00;99.90
25949;DHT22;13961;51.178;4.448;2023-01-16T16:48:50;5.30;99.90
25949;DHT22;13961;51.178;4.448;2023-01-16T16:53:48;5.30;99.90
25949;DHT22;13961;51.178;4.448;2023-01-16T16:56:22;5.20;99.90
25949;DHT22;13961;51.178;4.448;2023-01-16T16:58:49;5.40;99.90
25949;DHT22;13961;51.178;4.448;2023-01-16T17:01:19;5.40;99.90
25949;DHT22;13961;51.178;4.448;2023-01-16T17:03:47;5.40;99.90
25949;DHT22;13961;51.178;4.448;2023-01-16T17:06:18;5.40;99.90
25949;DHT22;13961;51.178;4.448;2023-01-16T17:08:45;5.70;99.90
25949;DHT22;13961;51.178;4.448;2023-01-16T17:11:12;5.40;99.90
25949;DHT22;13961;51.178;4.448;2023-01-16T17:13:39;5.50;99.90
25949;DHT22;13961;51.178;4.448;2023-01-16T17:16:23;5.40;99.90
25949;DHT22;13961;51.178;4.448;2023-01-16T17:19:21;5.40;99.90
25949;DHT22;13961;51.178;4.448;2023-01-16T17:21:49;5.30;99.90
25949;DHT22;13961;51.178;4.448;2023-01-16T17:24:16;5.30;99.90
25949;DHT22;13961;51.178;4.448;2023-01-16T17:26:42;5.40;99.90
25949;DHT22;13961;51.178;4.448;2023-01-16T17:29:08;5.30;99.90
25949;DHT22;13961;51.178;4.448;2023-01-16T17:31:39;5.30;99.90
25949;DHT22;13961;51.178;4.448;2023-01-16T17:34:09;5.40;99.90
25949;DHT22;13961;51.178;4.448;2023-01-16T17:36:38;5.40;99.90
25949;DHT22;13961;51.178;4.448;2023-01-16T17:39:04;5.40;99.90
25949;DHT22;13961;51.178;4.448;2023-01-16T17:41:34;5.20;99.90
25949;DHT22;13961;51.178;4.448;2023-01-16T17:44:22;5.30;99.90
25949;DHT22;13961;51.178;4.448;2023-01-16T17:47:09;5.50;99.90
25949;DHT22;13961;51.178;4.448;2023-01-16T17:49:37;5.30;99.90
25949;DHT22;13961;51.178;4.448;2023-01-16T17:52:21;5.30;99.90
25949;DHT22;13961;51.178;4.448;2023-01-16T17:54:47;5.60;99.90
25949;DHT22;13961;51.178;4.448;2023-01-16T17:57:31;5.50;99.90
25949;DHT22;13961;51.178;4.448;2023-01-16T17:59:58;5.70;99.90
25949;DHT22;13961;51.178;4.448;2023-01-16T18:02:24;5.60;99.90
25949;DHT22;13961;51.178;4.448;2023-01-16T18:04:50;5.40;99.90
25949;DHT22;13961;51.178;4.448;2023-01-16T18:07:16;5.70;99.90
25949;DHT22;13961;51.178;4.448;2023-01-16T18:09:42;5.50;99.90
25949;DHT22;13961;51.178;4.448;2023-01-16T18:12:09;5.60;99.90
25949;DHT22;13961;51.178;4.448;2023-01-16T18:14:53;5.80;99.90
25949;DHT22;13961;51.178;4.448;2023-01-16T18:17:38;5.80;99.90
25949;DHT22;13961;51.178;4.448;2023-01-16T18:20:04;5.50;99.90
25949;DHT22;13961;51.178;4.448;2023-01-16T18:22:33;5.40;99.90
25949;DHT22;13961;51.178;4.448;2023-01-16T18:25:03;5.50;99.90
25949;DHT22;13961;51.178;4.448;2023-01-16T18:27:29;5.20;99.90
25949;DHT22;13961;51.178;4.448;2023-01-16T18:29:55;5.40;99.90
25949;DHT22;13961;51.178;4.448;2023-01-16T18:32:21;5.40;99.90
25949;DHT22;13961;51.178;4.448;2023-01-16T18:34:53;5.30;99.90
25949;DHT22;13961;51.178;4.448;2023-01-16T18:37:24;5.10;99.90
25949;DHT22;13961;51.178;4.448;2023-01-16T18:39:54;5.10;99.90
25949;DHT22;13961;51.178;4.448;2023-01-16T18:42:38;5.00;99.90
25949;DHT22;13961;51.178;4.448;2023-01-16T18:45:23;4.90;99.90